Time;durP1;ratioP1;P1;durP2;ratioP2;P2;SDS_P1;SDS_P2;PMS_P1;PMS_P2;Temp;Humidity;BMP_temperature;BMP_pressure;BME280_temperature;BME280_humidity;BME280_pressure;Samples;Min_cycle;Max_cycle;Signal;HPM_P1;HPM_P2
2022/08/15 00:01:16;;;;;;;6.93;5.07;;;24.80;52.50;;;;;;5042364;28;20559;-73
2022/08/15 00:03:45;;;;;;;8.87;5.40;;;24.80;53.20;;;;;;5036208;28;20424;-71
2022/08/15 00:06:14;;;;;;;6.97;5.43;;;24.90;53.20;;;;;;5040091;28;20433;-72
2022/08/15 00:08:44;;;;;;;8.10;6.00;;;25.00;52.90;;;;;;5035701;28;20461;-73
2022/08/15 00:11:15;;;;;;;5.93;4.83;;;25.00;52.90;;;;;;5041181;28;20910;-72
2022/08/15 00:13:44;;;;;;;8.23;5.40;;;24.90;53.60;;;;;;5047325;28;20535;-73
2022/08/15 00:16:11;;;;;;;11.27;5.80;;;24.80;53.80;;;;;;5044761;28;20434;-73
2022/08/15 00:18:37;;;;;;;6.90;5.60;;;24.70;54.10;;;;;;5041383;28;20558;-71
2022/08/15 00:21:03;;;;;;;7.90;5.23;;;24.60;54.60;;;;;;5050379;28;20868;-71
2022/08/15 00:23:29;;;;;;;6.73;5.87;;;24.60;55.30;;;;;;5044825;28;20427;-72
2022/08/15 00:25:58;;;;;;;6.90;5.43;;;24.50;56.10;;;;;;5041194;28;20432;-72
2022/08/15 00:28:29;;;;;;;7.03;5.27;;;24.50;56.40;;;;;;5047670;28;20211;-73
2022/08/15 00:30:55;;;;;;;6.07;5.37;;;24.60;57.00;;;;;;5050240;28;20529;-72
2022/08/15 00:33:21;;;;;;;12.07;5.83;;;24.60;56.90;;;;;;5047360;28;20527;-72
2022/08/15 00:35:49;;;;;;;8.60;5.80;;;24.40;57.00;;;;;;5042946;28;20499;-72
2022/08/15 00:38:26;;;;;;;6.30;5.67;;;24.20;56.80;;;;;;5045498;28;20213;-73
2022/08/15 00:43:45;;;;;;;9.30;5.60;;;24.00;57.60;;;;;;5051471;28;20760;-72
2022/08/15 00:46:13;;;;;;;7.40;5.70;;;24.00;57.60;;;;;;5042772;28;20817;-72
2022/08/15 00:48:41;;;;;;;6.23;5.70;;;23.90;57.80;;;;;;5032689;28;20456;-73
2022/08/15 00:51:29;;;;;;;7.80;5.73;;;23.90;58.00;;;;;;5049765;28;20819;-71
2022/08/15 00:54:08;;;;;;;8.00;5.67;;;23.80;58.50;;;;;;5036113;28;20438;-71
2022/08/15 00:56:39;;;;;;;7.30;5.30;;;23.70;58.90;;;;;;5043065;28;20471;-71
2022/08/15 00:59:09;;;;;;;9.13;6.03;;;23.70;59.10;;;;;;5041517;28;20880;-72
2022/08/15 01:01:35;;;;;;;7.70;6.00;;;23.70;59.30;;;;;;5039534;28;20599;-71
2022/08/15 01:04:01;;;;;;;8.87;5.87;;;23.80;59.90;;;;;;5035745;28;20452;-74
2022/08/15 01:06:27;;;;;;;6.93;5.40;;;23.90;59.50;;;;;;5040380;28;20180;-71
2022/08/15 01:08:53;;;;;;;7.93;5.90;;;23.70;59.90;;;;;;5036903;28;20216;-74
2022/08/15 01:11:25;;;;;;;8.53;5.90;;;23.60;60.10;;;;;;5038569;28;20476;-72
2022/08/15 01:13:53;;;;;;;6.50;5.90;;;23.70;59.60;;;;;;5033522;28;20863;-71
2022/08/15 01:16:21;;;;;;;9.20;5.87;;;23.80;59.60;;;;;;5044603;28;20479;-73
2022/08/15 01:18:47;;;;;;;15.00;5.63;;;23.70;59.60;;;;;;5038479;28;20486;-72
2022/08/15 01:21:28;;;;;;;9.00;6.30;;;23.80;59.50;;;;;;5041190;28;20470;-72
2022/08/15 01:24:19;;;;;;;7.73;6.50;;;23.60;59.90;;;;;;5038662;28;20183;-71
2022/08/15 01:26:45;;;;;;;9.90;5.70;;;23.50;60.40;;;;;;5044300;28;20422;-73
2022/08/15 01:29:14;;;;;;;9.27;6.10;;;23.50;60.40;;;;;;5043012;28;20859;-72
2022/08/15 01:31:40;;;;;;;10.57;5.80;;;23.40;60.90;;;;;;5037000;28;20830;-73
2022/08/15 01:34:06;;;;;;;7.87;5.40;;;23.40;61.20;;;;;;5043454;28;20418;-71
2022/08/15 01:36:32;;;;;;;7.53;5.50;;;23.40;61.30;;;;;;5034079;28;20242;-71
2022/08/15 01:39:01;;;;;;;7.90;5.60;;;23.30;61.60;;;;;;5037348;28;20261;-71
2022/08/15 01:41:37;;;;;;;13.00;6.57;;;23.30;62.00;;;;;;5039141;28;20903;-73
2022/08/15 01:44:20;;;;;;;8.63;6.67;;;23.20;62.20;;;;;;5040145;28;20422;-72
2022/08/15 01:47:06;;;;;;;13.10;6.00;;;23.20;62.80;;;;;;5036755;28;20433;-72
2022/08/15 01:49:53;;;;;;;8.37;5.90;;;23.20;62.90;;;;;;5041719;28;20519;-72
2022/08/15 01:52:23;;;;;;;8.93;6.33;;;23.10;63.70;;;;;;5037523;28;20429;-72
2022/08/15 01:54:50;;;;;;;7.50;6.20;;;23.00;64.20;;;;;;5035765;28;20429;-72
2022/08/15 01:57:16;;;;;;;6.43;5.23;;;22.90;65.00;;;;;;5042297;28;21018;-70
2022/08/15 01:59:42;;;;;;;8.37;5.70;;;22.90;65.60;;;;;;5040221;28;20420;-73
2022/08/15 02:02:11;;;;;;;10.10;5.77;;;22.80;65.80;;;;;;5038730;28;20518;-72
2022/08/15 02:04:40;;;;;;;9.80;5.60;;;22.80;66.70;;;;;;5030695;28;20955;-73
2022/08/15 02:07:12;;;;;;;7.63;5.67;;;22.70;67.20;;;;;;5036629;28;20832;-71
2022/08/15 02:09:41;;;;;;;11.40;5.40;;;22.70;67.50;;;;;;5038266;28;20568;-73
2022/08/15 02:12:08;;;;;;;9.83;6.23;;;22.70;67.70;;;;;;5039024;28;20428;-71
2022/08/15 02:14:35;;;;;;;10.87;6.57;;;22.70;67.70;;;;;;5036532;28;20910;-73
2022/08/15 02:17:02;;;;;;;7.77;5.80;;;22.70;67.90;;;;;;5042066;28;20452;-72
2022/08/15 02:19:28;;;;;;;8.20;5.50;;;22.80;67.60;;;;;;5047573;28;20430;-72
2022/08/15 02:21:54;;;;;;;12.80;5.93;;;22.80;67.60;;;;;;5042752;28;20480;-71
2022/08/15 02:24:22;;;;;;;8.93;5.60;;;22.80;67.60;;;;;;5033079;28;20236;-72
2022/08/15 02:26:50;;;;;;;11.50;5.60;;;22.80;67.90;;;;;;5039501;28;20197;-72
2022/08/15 02:29:17;;;;;;;8.30;5.37;;;22.80;67.90;;;;;;5043063;28;20512;-71
2022/08/15 02:31:43;;;;;;;8.87;5.33;;;22.90;67.90;;;;;;5041732;28;20516;-71
2022/08/15 02:34:10;;;;;;;11.43;6.00;;;22.90;67.70;;;;;;5042195;28;20986;-72
2022/08/15 02:36:39;;;;;;;8.50;6.00;;;22.80;68.00;;;;;;5038556;28;20464;-73
2022/08/15 02:39:08;;;;;;;9.13;5.07;;;22.80;68.50;;;;;;5047080;28;20816;-72
2022/08/15 02:41:42;;;;;;;5.57;4.70;;;22.80;68.60;;;;;;5037313;28;20471;-72
2022/08/15 02:44:11;;;;;;;10.93;5.83;;;22.70;68.60;;;;;;5043300;28;20451;-71
2022/08/15 02:46:39;;;;;;;8.30;4.90;;;22.70;68.80;;;;;;5036283;28;20418;-72
2022/08/15 02:49:11;;;;;;;10.10;5.53;;;22.70;69.10;;;;;;5041626;28;20457;-72
2022/08/15 02:51:41;;;;;;;9.70;5.47;;;22.60;69.10;;;;;;5035152;28;20425;-74
2022/08/15 02:54:09;;;;;;;8.53;5.13;;;22.60;69.40;;;;;;5045419;28;20424;-71
2022/08/15 02:56:35;;;;;;;8.00;5.40;;;22.60;69.50;;;;;;5037016;28;20530;-71
2022/08/15 02:59:02;;;;;;;9.90;4.80;;;22.60;69.50;;;;;;5048144;28;20465;-72
2022/08/15 03:01:29;;;;;;;9.40;4.40;;;22.60;69.40;;;;;;5046971;28;21158;-72
2022/08/15 03:03:56;;;;;;;8.10;4.40;;;22.60;69.50;;;;;;5045777;28;20438;-72
2022/08/15 03:06:24;;;;;;;7.17;4.83;;;22.60;69.80;;;;;;5041507;28;20798;-71
2022/08/15 03:08:51;;;;;;;5.83;4.90;;;22.50;70.50;;;;;;5047320;28;20883;-72
2022/08/15 03:11:17;;;;;;;6.03;5.03;;;22.40;70.50;;;;;;5042426;28;20529;-71
2022/08/15 03:13:43;;;;;;;10.87;5.33;;;22.40;70.70;;;;;;5037760;28;20507;-71
2022/08/15 03:16:10;;;;;;;6.17;4.43;;;22.40;70.80;;;;;;5044415;28;20202;-72
2022/08/15 03:18:37;;;;;;;7.37;4.83;;;22.40;71.00;;;;;;5042348;28;21011;-72
2022/08/15 03:21:08;;;;;;;8.80;5.10;;;22.40;71.00;;;;;;5040697;28;20874;-71
2022/08/15 03:23:34;;;;;;;7.30;4.60;;;22.40;71.00;;;;;;5040837;28;20902;-71
2022/08/15 03:26:02;;;;;;;6.13;4.60;;;22.30;70.80;;;;;;5044693;28;20428;-70
2022/08/15 03:28:31;;;;;;;7.93;5.27;;;22.40;70.80;;;;;;5047805;28;20589;-71
2022/08/15 03:30:59;;;;;;;7.67;4.37;;;22.30;71.00;;;;;;5044494;28;20494;-72
2022/08/15 03:33:26;;;;;;;7.67;4.10;;;22.30;71.10;;;;;;5040453;28;20443;-70
2022/08/15 03:35:52;;;;;;;7.30;4.73;;;22.30;71.10;;;;;;5040156;28;20441;-70
2022/08/15 03:38:18;;;;;;;7.73;4.43;;;22.20;71.40;;;;;;5045002;28;20474;-71
2022/08/15 03:40:46;;;;;;;4.63;4.00;;;22.20;71.70;;;;;;5040915;28;21034;-71
2022/08/15 03:43:15;;;;;;;8.40;4.80;;;22.20;72.30;;;;;;5045198;28;20439;-71
2022/08/15 03:45:51;;;;;;;5.97;4.80;;;22.10;72.70;;;;;;5048439;28;20422;-72
2022/08/15 03:48:18;;;;;;;7.60;5.07;;;22.00;73.60;;;;;;5038453;28;21006;-70
2022/08/15 03:50:44;;;;;;;5.33;3.90;;;21.90;74.20;;;;;;5052095;28;20509;-71
2022/08/15 03:53:11;;;;;;;9.67;5.00;;;21.90;74.50;;;;;;5051033;28;20443;-71
2022/08/15 03:55:38;;;;;;;8.40;4.20;;;21.80;74.60;;;;;;5045023;28;20465;-71
2022/08/15 03:58:05;;;;;;;7.40;4.80;;;21.80;75.20;;;;;;5038110;28;20847;-70
2022/08/15 04:00:44;;;;;;;6.90;4.30;;;21.80;75.50;;;;;;5041023;28;20477;-71
2022/08/15 04:03:17;;;;;;;5.63;4.10;;;21.70;75.70;;;;;;5043840;28;20817;-72
2022/08/15 04:05:51;;;;;;;6.53;4.27;;;21.70;75.70;;;;;;5040219;28;20464;-72
2022/08/15 04:08:20;;;;;;;9.30;4.60;;;21.70;75.70;;;;;;5037213;28;20461;-72
2022/08/15 04:10:49;;;;;;;7.80;4.63;;;21.70;75.40;;;;;;5039326;28;20439;-72
2022/08/15 04:13:15;;;;;;;7.47;4.70;;;21.80;75.50;;;;;;5044862;28;20422;-73
2022/08/15 04:15:41;;;;;;;6.57;4.77;;;21.80;75.50;;;;;;5038498;28;20437;-72
2022/08/15 04:18:09;;;;;;;6.63;4.80;;;21.70;75.80;;;;;;5043001;28;21007;-72
2022/08/15 04:20:35;;;;;;;4.87;4.13;;;21.70;75.70;;;;;;5040848;28;20527;-71
2022/08/15 04:23:01;;;;;;;5.13;3.80;;;21.70;75.20;;;;;;5040816;28;20432;-71
2022/08/15 04:25:30;;;;;;;6.30;3.87;;;21.70;75.10;;;;;;5042907;28;20846;-72
2022/08/15 04:27:59;;;;;;;6.33;3.67;;;21.60;74.60;;;;;;5040186;28;20849;-71
2022/08/15 04:30:28;;;;;;;6.17;3.90;;;21.60;74.90;;;;;;5043905;28;20494;-73
2022/08/15 04:33:08;;;;;;;7.03;3.70;;;21.60;74.90;;;;;;5042645;28;20814;-71
2022/08/15 04:35:34;;;;;;;6.60;3.97;;;21.50;74.80;;;;;;5038325;28;20417;-71
2022/08/15 04:38:00;;;;;;;5.33;3.80;;;21.50;74.60;;;;;;5038528;28;20468;-71
2022/08/15 04:40:28;;;;;;;4.60;3.80;;;21.40;74.60;;;;;;5036526;28;20545;-71
2022/08/15 04:42:54;;;;;;;6.17;3.40;;;21.40;74.80;;;;;;5044582;28;20213;-71
2022/08/15 04:45:20;;;;;;;5.20;3.60;;;21.40;74.80;;;;;;5034481;28;20428;-70
2022/08/15 04:47:46;;;;;;;5.67;3.90;;;21.40;74.90;;;;;;5037944;28;20581;-71
2022/08/15 04:50:12;;;;;;;4.73;3.37;;;21.30;75.40;;;;;;5039847;28;20444;-70
2022/08/15 04:52:45;;;;;;;5.93;3.83;;;21.20;75.80;;;;;;5035581;28;20203;-70
2022/08/15 04:55:13;;;;;;;9.20;4.57;;;21.10;76.20;;;;;;5040505;28;20502;-71
2022/08/15 04:57:40;;;;;;;8.07;4.30;;;21.10;76.40;;;;;;5033486;28;20833;-71
2022/08/15 05:00:09;;;;;;;10.43;3.77;;;21.10;76.70;;;;;;5043059;28;20471;-71
2022/08/15 05:02:35;;;;;;;7.93;3.63;;;21.10;76.70;;;;;;5044300;28;20422;-72
2022/08/15 05:05:02;;;;;;;8.13;4.17;;;21.10;76.80;;;;;;5040243;28;20441;-71
2022/08/15 05:07:28;;;;;;;8.43;3.87;;;21.00;77.30;;;;;;5041606;28;20518;-70
2022/08/15 05:09:58;;;;;;;5.07;3.30;;;21.00;77.40;;;;;;5041048;28;20499;-71
2022/08/15 05:12:24;;;;;;;6.23;4.30;;;21.00;77.10;;;;;;5049477;28;20429;-71
2022/08/15 05:14:50;;;;;;;11.40;3.63;;;21.00;77.30;;;;;;5049145;28;20790;-71
2022/08/15 05:17:16;;;;;;;5.13;3.23;;;20.90;77.80;;;;;;5038640;28;20556;-72
2022/08/15 05:19:42;;;;;;;6.40;3.77;;;20.90;77.80;;;;;;5038594;28;20504;-70
2022/08/15 05:22:09;;;;;;;6.20;3.60;;;20.90;77.60;;;;;;5036532;28;20465;-71
2022/08/15 05:24:36;;;;;;;4.90;3.40;;;20.90;77.30;;;;;;5039094;28;20511;-72
2022/08/15 05:27:02;;;;;;;4.60;3.30;;;20.90;77.40;;;;;;5044584;28;20215;-72
2022/08/15 05:29:28;;;;;;;5.77;3.37;;;20.90;77.10;;;;;;5040303;28;20933;-72
2022/08/15 05:31:54;;;;;;;4.97;3.23;;;20.80;77.30;;;;;;5034734;28;20432;-71
2022/08/15 05:34:20;;;;;;;4.23;3.30;;;20.80;77.40;;;;;;5044142;28;20194;-72
2022/08/15 05:36:49;;;;;;;6.23;3.30;;;20.80;77.30;;;;;;5037705;28;20888;-70
2022/08/15 05:39:25;;;;;;;5.30;3.27;;;20.90;77.10;;;;;;5040191;28;20432;-71
2022/08/15 05:42:15;;;;;;;6.13;3.40;;;20.80;77.70;;;;;;5045824;28;20468;-71
2022/08/15 05:44:50;;;;;;;6.13;3.73;;;20.80;78.10;;;;;;5046233;28;20444;-71
2022/08/15 05:47:37;;;;;;;5.47;3.20;;;20.70;78.70;;;;;;5035758;28;20452;-72
2022/08/15 05:50:17;;;;;;;6.30;3.30;;;20.70;78.70;;;;;;5048382;28;20430;-71
2022/08/15 05:53:03;;;;;;;4.30;3.17;;;20.60;78.90;;;;;;5031744;28;20444;-71
2022/08/15 05:55:52;;;;;;;10.40;4.00;;;20.60;79.00;;;;;;5039589;28;20433;-72
2022/08/15 05:58:34;;;;;;;7.20;4.20;;;20.60;79.00;;;;;;5045468;28;20462;-72
2022/08/15 06:01:00;;;;;;;6.40;3.40;;;20.60;78.70;;;;;;5040325;28;20571;-71
2022/08/15 06:03:27;;;;;;;6.03;3.10;;;20.60;78.60;;;;;;5043207;28;20523;-71
2022/08/15 06:05:57;;;;;;;5.10;2.70;;;20.70;78.40;;;;;;5057114;28;20190;-71
2022/08/15 06:08:33;;;;;;;6.83;3.73;;;20.60;78.40;;;;;;5048488;28;20465;-70
2022/08/15 06:11:09;;;;;;;9.60;3.47;;;20.70;78.10;;;;;;5054703;28;20969;-70
2022/08/15 06:13:57;;;;;;;6.47;3.50;;;20.70;77.80;;;;;;5039664;28;20491;-70
2022/08/15 06:16:36;;;;;;;8.40;3.50;;;20.80;77.80;;;;;;5047918;28;20520;-71
2022/08/15 06:19:06;;;;;;;4.87;3.27;;;20.80;77.70;;;;;;5042612;28;20488;-71
2022/08/15 06:21:37;;;;;;;4.20;2.90;;;20.90;77.70;;;;;;5045381;28;20460;-71
2022/08/15 06:24:22;;;;;;;7.83;4.00;;;20.90;78.40;;;;;;5042882;28;20420;-70
2022/08/15 06:27:21;;;;;;;6.47;3.77;;;20.80;79.90;;;;;;5040825;28;20461;-70
2022/08/15 06:30:12;;;;;;;4.20;3.30;;;20.60;80.60;;;;;;5045790;28;20425;-71
2022/08/15 06:32:46;;;;;;;6.27;3.50;;;20.60;80.50;;;;;;5034933;28;20440;-70
2022/08/15 06:35:21;;;;;;;5.80;3.50;;;20.60;80.80;;;;;;5046283;28;20416;-71
2022/08/15 06:38:05;;;;;;;5.47;3.23;;;20.70;79.90;;;;;;5037779;28;21025;-71
2022/08/15 06:40:44;;;;;;;9.80;3.30;;;20.60;79.60;;;;;;5040523;28;20468;-70
2022/08/15 06:43:10;;;;;;;4.90;3.80;;;20.60;80.30;;;;;;5038665;28;20410;-69
2022/08/15 06:45:43;;;;;;;6.80;4.50;;;20.60;80.00;;;;;;5043890;28;20421;-71
2022/08/15 06:48:13;;;;;;;6.30;3.67;;;20.70;79.90;;;;;;5040436;28;21156;-72
2022/08/15 06:50:44;;;;;;;5.23;3.63;;;20.80;79.70;;;;;;5042207;28;20434;-72
2022/08/15 06:53:21;;;;;;;5.27;3.47;;;21.00;79.20;;;;;;5047043;28;21287;-70
2022/08/15 06:56:01;;;;;;;5.80;3.50;;;21.10;78.30;;;;;;5045531;28;20508;-70
2022/08/15 06:58:40;;;;;;;5.20;3.33;;;21.10;76.50;;;;;;5043328;28;20538;-71
2022/08/15 07:01:33;;;;;;;4.27;2.63;;;21.20;77.00;;;;;;5044315;28;20993;-71
2022/08/15 07:04:22;;;;;;;6.53;3.53;;;21.30;76.40;;;;;;5041217;28;20418;-72
2022/08/15 07:06:51;;;;;;;4.33;2.90;;;21.30;75.10;;;;;;5049649;28;20851;-70
2022/08/15 07:09:19;;;;;;;10.00;3.80;;;21.20;75.20;;;;;;5044017;28;20430;-71
2022/08/15 07:12:22;;;;;;;3.70;2.80;;;21.20;75.10;;;;;;5047263;28;20802;-71
2022/08/15 07:14:54;;;;;;;7.03;3.50;;;21.10;75.20;;;;;;5042879;28;20909;-72
2022/08/15 07:17:27;;;;;;;7.93;3.53;;;21.20;74.80;;;;;;5036553;28;20592;-72
2022/08/15 07:19:54;;;;;;;6.80;3.60;;;21.30;74.50;;;;;;5042413;28;20423;-72
2022/08/15 07:22:20;;;;;;;5.47;3.10;;;21.40;74.00;;;;;;5041227;28;20423;-71
2022/08/15 07:24:52;;;;;;;6.67;3.70;;;21.50;73.90;;;;;;5040443;28;20439;-71
2022/08/15 07:27:29;;;;;;;6.80;3.57;;;21.60;73.50;;;;;;5038061;28;20214;-71
2022/08/15 07:30:18;;;;;;;6.93;3.73;;;21.70;72.70;;;;;;5040862;28;20799;-72
2022/08/15 07:32:50;;;;;;;9.40;3.50;;;21.80;72.60;;;;;;5040325;28;20423;-71
2022/08/15 07:35:29;;;;;;;4.63;3.20;;;21.80;72.00;;;;;;5039659;28;20785;-72
2022/08/15 07:37:58;;;;;;;4.40;2.87;;;21.80;71.60;;;;;;5036729;28;20458;-72
2022/08/15 07:40:42;;;;;;;5.80;2.87;;;21.90;71.60;;;;;;5044016;28;20496;-71
2022/08/15 07:43:30;;;;;;;5.33;2.93;;;22.00;71.30;;;;;;5036745;28;20887;-71
2022/08/15 07:46:19;;;;;;;6.40;3.17;;;22.10;70.50;;;;;;5046215;28;20584;-72
2022/08/15 07:48:54;;;;;;;4.10;2.60;;;22.30;70.20;;;;;;5037875;28;20879;-70
2022/08/15 07:51:27;;;;;;;4.37;3.10;;;22.30;69.20;;;;;;5041893;28;20481;-71
2022/08/15 07:53:53;;;;;;;4.80;3.03;;;22.30;69.40;;;;;;5044463;28;20425;-72
2022/08/15 07:56:19;;;;;;;3.77;2.73;;;22.30;69.70;;;;;;5041150;28;20427;-70
2022/08/15 07:58:44;;;;;;;4.50;2.70;;;22.30;69.80;;;;;;5041389;28;20215;-73
2022/08/15 08:01:22;;;;;;;5.00;3.10;;;22.40;69.70;;;;;;5035944;28;20475;-71
2022/08/15 08:04:11;;;;;;;4.57;2.90;;;22.50;69.40;;;;;;5044439;28;20902;-70
2022/08/15 08:06:49;;;;;;;4.03;3.40;;;22.50;69.40;;;;;;5039748;28;20975;-71
2022/08/15 08:09:38;;;;;;;6.60;2.97;;;22.60;69.20;;;;;;5037395;28;20857;-71
2022/08/15 08:12:20;;;;;;;5.33;2.80;;;22.60;69.10;;;;;;5046401;28;20510;-70
2022/08/15 08:15:17;;;;;;;6.67;3.23;;;22.70;68.60;;;;;;5048151;28;20427;-71
2022/08/15 08:17:42;;;;;;;5.00;3.10;;;22.80;68.20;;;;;;5035394;28;20919;-71
2022/08/15 08:20:45;;;;;;;4.07;2.90;;;22.90;67.70;;;;;;5051178;28;20464;-70
2022/08/15 08:23:26;;;;;;;4.40;2.80;;;22.80;67.00;;;;;;5015695;28;20190;-72
2022/08/15 08:25:57;;;;;;;3.63;3.00;;;22.80;67.30;;;;;;5037088;28;20953;-71
2022/08/15 08:28:42;;;;;;;4.93;2.87;;;23.00;67.20;;;;;;5039368;28;20501;-71
2022/08/15 08:31:16;;;;;;;4.47;2.73;;;23.00;66.90;;;;;;5042538;28;20430;-70
2022/08/15 08:34:05;;;;;;;3.93;2.50;;;23.10;64.70;;;;;;5036431;28;20412;-71
2022/08/15 08:36:36;;;;;;;4.00;2.73;;;23.00;64.40;;;;;;5044123;28;20496;-70
2022/08/15 08:39:14;;;;;;;3.93;2.60;;;23.10;64.70;;;;;;5041258;28;21029;-71
2022/08/15 08:42:13;;;;;;;3.90;2.67;;;23.20;64.20;;;;;;5043437;28;20474;-70
2022/08/15 08:44:57;;;;;;;5.53;2.90;;;23.10;64.80;;;;;;5037789;28;20420;-70
2022/08/15 08:47:41;;;;;;;4.73;2.73;;;23.20;64.50;;;;;;5037461;28;20461;-70
2022/08/15 08:50:29;;;;;;;3.80;2.53;;;23.40;64.20;;;;;;5040527;28;20511;-72
2022/08/15 08:53:01;;;;;;;3.37;2.30;;;23.60;63.10;;;;;;5051943;28;20545;-73
2022/08/15 08:55:47;;;;;;;3.37;2.37;;;23.70;62.30;;;;;;5069028;28;20437;-72
2022/08/15 08:58:18;;;;;;;4.50;2.57;;;23.80;62.30;;;;;;5064523;28;20432;-73
2022/08/15 09:00:47;;;;;;;4.63;2.40;;;23.80;62.00;;;;;;5064382;28;20966;-72
2022/08/15 09:03:26;;;;;;;4.10;2.50;;;24.00;61.70;;;;;;5037441;28;20504;-73
2022/08/15 09:05:54;;;;;;;4.33;2.40;;;24.30;60.60;;;;;;5039274;28;20888;-72
2022/08/15 09:08:51;;;;;;;3.33;2.63;;;24.30;60.30;;;;;;5036557;28;20458;-72
2022/08/15 09:11:19;;;;;;;4.17;2.87;;;24.40;60.10;;;;;;5036725;28;21202;-73
2022/08/15 09:13:46;;;;;;;7.80;3.10;;;24.30;59.60;;;;;;5040614;28;20447;-72
2022/08/15 09:16:26;;;;;;;4.10;2.57;;;24.60;59.10;;;;;;5033383;28;20793;-72
2022/08/15 09:19:03;;;;;;;4.23;2.40;;;24.70;58.70;;;;;;5041811;28;20510;-71
2022/08/15 09:21:29;;;;;;;3.47;2.40;;;24.60;58.40;;;;;;5031095;28;20467;-72
2022/08/15 09:23:56;;;;;;;2.87;2.43;;;24.50;58.90;;;;;;5044619;28;20426;-71
2022/08/15 09:26:40;;;;;;;6.10;2.63;;;24.50;58.80;;;;;;5046720;28;20671;-72
2022/08/15 09:29:20;;;;;;;3.13;2.50;;;24.60;58.80;;;;;;5042769;28;20881;-72
2022/08/15 09:32:25;;;;;;;3.13;2.33;;;24.60;58.20;;;;;;5036956;28;20472;-72
2022/08/15 09:34:56;;;;;;;4.30;2.70;;;24.40;58.90;;;;;;5036047;28;20424;-73
2022/08/15 09:37:37;;;;;;;4.13;2.63;;;24.60;58.50;;;;;;5040552;28;20446;-71
2022/08/15 09:40:12;;;;;;;6.03;3.23;;;24.90;57.20;;;;;;5042215;28;20436;-72
2022/08/15 09:43:17;;;;;;;5.67;3.80;;;24.90;58.70;;;;;;5042435;28;20437;-72
2022/08/15 09:46:13;;;;;;;4.73;3.30;;;24.80;59.30;;;;;;5034292;28;20496;-72
2022/08/15 09:49:03;;;;;;;4.13;3.13;;;24.50;59.50;;;;;;5040463;28;20467;-71
2022/08/15 09:51:48;;;;;;;3.53;3.13;;;24.30;61.00;;;;;;5032710;28;20505;-72
2022/08/15 09:54:23;;;;;;;4.53;2.90;;;24.00;61.70;;;;;;5035744;28;20419;-72
2022/08/15 09:57:10;;;;;;;3.57;2.87;;;24.10;61.30;;;;;;5041505;28;20434;-73
2022/08/15 09:59:37;;;;;;;3.80;2.90;;;24.30;60.00;;;;;;5043966;28;20440;-72
2022/08/15 10:02:19;;;;;;;4.70;2.80;;;24.50;58.90;;;;;;5039486;28;20592;-73
2022/08/15 10:04:47;;;;;;;3.90;2.90;;;24.70;58.40;;;;;;5037644;28;20426;-71
2022/08/15 10:07:13;;;;;;;5.40;3.10;;;24.90;57.20;;;;;;5041032;28;20500;-72
2022/08/15 10:10:04;;;;;;;10.33;3.50;;;24.80;59.10;;;;;;5035035;28;20439;-70
2022/08/15 10:12:32;;;;;;;7.20;3.40;;;25.10;58.80;;;;;;5033115;28;20211;-71
2022/08/15 10:15:30;;;;;;;4.00;3.20;;;25.20;58.50;;;;;;5047630;28;20504;-70
2022/08/15 10:17:57;;;;;;;5.30;3.70;;;25.40;58.10;;;;;;5041914;28;20891;-71
2022/08/15 10:20:26;;;;;;;4.40;3.07;;;25.50;56.20;;;;;;5044975;28;20472;-72
2022/08/15 10:22:59;;;;;;;4.80;3.33;;;25.40;56.50;;;;;;5048303;28;20837;-71
2022/08/15 10:25:37;;;;;;;6.20;3.00;;;25.50;56.40;;;;;;5042895;28;20625;-71
2022/08/15 10:28:05;;;;;;;3.03;2.60;;;25.50;56.40;;;;;;5039759;28;20458;-72
2022/08/15 10:30:40;;;;;;;4.00;2.63;;;25.80;55.70;;;;;;5044297;28;20860;-73
2022/08/15 10:33:33;;;;;;;3.80;2.67;;;25.80;55.20;;;;;;5036187;28;20430;-71
2022/08/15 10:36:13;;;;;;;3.50;2.87;;;26.10;54.40;;;;;;5040944;28;20781;-72
2022/08/15 10:39:02;;;;;;;4.43;3.17;;;26.30;54.10;;;;;;5035654;28;21083;-71
2022/08/15 10:41:37;;;;;;;3.40;3.17;;;26.20;54.20;;;;;;5040995;28;20561;-73
2022/08/15 10:44:20;;;;;;;4.40;3.77;;;26.10;55.30;;;;;;5042185;28;20429;-72
2022/08/15 10:47:00;;;;;;;5.30;3.13;;;25.90;56.90;;;;;;5040884;28;20448;-71
2022/08/15 10:49:44;;;;;;;5.13;3.57;;;25.70;57.40;;;;;;5042753;28;20755;-71
2022/08/15 10:52:27;;;;;;;4.70;3.67;;;25.80;57.20;;;;;;5045160;28;20429;-72
2022/08/15 10:55:12;;;;;;;8.47;3.80;;;26.10;56.10;;;;;;5040789;28;20421;-72
2022/08/15 10:57:50;;;;;;;6.33;3.47;;;26.50;55.60;;;;;;5047365;28;20454;-71
2022/08/15 11:00:38;;;;;;;5.33;3.33;;;27.00;53.70;;;;;;5049096;28;20480;-71
2022/08/15 11:03:11;;;;;;;4.40;3.60;;;27.40;52.00;;;;;;5044143;28;20411;-71
2022/08/15 11:05:37;;;;;;;8.10;3.17;;;27.30;52.40;;;;;;5047633;28;20408;-72
2022/08/15 11:08:11;;;;;;;6.43;3.40;;;27.80;51.40;;;;;;5042055;28;20482;-71
2022/08/15 11:10:36;;;;;;;4.70;3.73;;;28.40;49.10;;;;;;5051154;28;20420;-71
2022/08/15 11:13:13;;;;;;;6.20;2.97;;;28.30;47.80;;;;;;5050938;28;20463;-72
2022/08/15 11:15:58;;;;;;;4.33;2.90;;;28.10;47.80;;;;;;5054327;28;20266;-71
2022/08/15 11:18:29;;;;;;;3.87;3.10;;;28.00;48.30;;;;;;5037849;28;20559;-71
2022/08/15 11:21:03;;;;;;;4.10;3.03;;;27.60;49.00;;;;;;5051148;28;22051;-71
2022/08/15 11:23:32;;;;;;;5.43;3.50;;;26.70;51.30;;;;;;5049838;28;20430;-72
2022/08/15 11:25:58;;;;;;;4.30;3.33;;;26.60;51.30;;;;;;5047951;28;20423;-72
2022/08/15 11:28:28;;;;;;;4.33;3.20;;;26.70;50.60;;;;;;5045345;28;20548;-71
2022/08/15 11:31:06;;;;;;;4.03;3.00;;;26.70;51.00;;;;;;5055452;28;20423;-71
2022/08/15 11:33:42;;;;;;;7.13;3.30;;;27.40;49.10;;;;;;5038539;28;20423;-72
2022/08/15 11:36:10;;;;;;;5.33;3.23;;;27.70;48.70;;;;;;5048862;28;20466;-72
2022/08/15 11:38:39;;;;;;;4.50;3.00;;;28.10;47.00;;;;;;5047411;28;20447;-71
2022/08/15 11:41:05;;;;;;;4.03;3.10;;;28.30;46.20;;;;;;5060412;28;20523;-71
2022/08/15 11:43:32;;;;;;;4.47;3.33;;;27.60;47.30;;;;;;5059304;28;20443;-71
2022/08/15 11:45:58;;;;;;;3.70;3.17;;;27.40;47.80;;;;;;5054561;28;20184;-72
2022/08/15 11:48:31;;;;;;;4.33;3.53;;;27.70;47.40;;;;;;5047131;28;20491;-70
2022/08/15 11:51:21;;;;;;;6.77;3.60;;;28.00;46.50;;;;;;5046925;28;20771;-73
2022/08/15 11:54:05;;;;;;;5.60;3.30;;;27.20;47.50;;;;;;5049654;28;20419;-71
2022/08/15 11:57:04;;;;;;;5.87;2.90;;;27.10;48.50;;;;;;5047213;28;20454;-71
2022/08/15 11:59:39;;;;;;;6.03;3.03;;;27.20;49.40;;;;;;5055688;28;20607;-70
2022/08/15 12:02:20;;;;;;;6.53;3.07;;;26.80;50.20;;;;;;5065672;28;20640;-71
2022/08/15 12:04:48;;;;;;;3.23;2.93;;;26.70;50.30;;;;;;5056153;28;20426;-71
2022/08/15 12:07:28;;;;;;;4.30;3.17;;;26.80;50.20;;;;;;5055726;28;20479;-71
2022/08/15 12:10:01;;;;;;;4.40;3.10;;;27.00;49.80;;;;;;5054492;28;20413;-71
2022/08/15 12:12:28;;;;;;;3.50;2.83;;;27.30;48.60;;;;;;5058506;28;20995;-72
2022/08/15 12:15:03;;;;;;;4.50;3.20;;;27.20;48.30;;;;;;5058338;28;20855;-72
2022/08/15 12:17:30;;;;;;;4.80;3.20;;;27.30;49.00;;;;;;5062957;28;21255;-71
2022/08/15 12:19:57;;;;;;;5.67;3.43;;;28.00;46.70;;;;;;5037117;28;20435;-71
2022/08/15 12:22:39;;;;;;;3.50;3.13;;;27.90;46.50;;;;;;5065568;28;20578;-71
2022/08/15 12:25:06;;;;;;;5.00;3.57;;;28.20;46.10;;;;;;5051814;28;20450;-70
2022/08/15 12:27:37;;;;;;;3.90;3.00;;;28.40;45.00;;;;;;5065035;28;20462;-71
2022/08/15 12:30:08;;;;;;;5.23;3.33;;;28.10;45.50;;;;;;5061888;28;20434;-71
2022/08/15 12:32:35;;;;;;;4.77;3.40;;;28.30;44.70;;;;;;5054916;28;20917;-71
2022/08/15 12:35:03;;;;;;;3.90;3.13;;;28.60;43.80;;;;;;5048813;28;20422;-72
2022/08/15 12:37:28;;;;;;;4.50;3.27;;;29.00;43.70;;;;;;5046482;28;20502;-72
2022/08/15 12:39:57;;;;;;;6.20;3.93;;;29.80;41.20;;;;;;5046056;28;20427;-72
2022/08/15 12:42:32;;;;;;;5.67;3.23;;;30.00;40.60;;;;;;5044510;28;20623;-72
2022/08/15 12:45:01;;;;;;;5.43;3.60;;;29.90;40.80;;;;;;5043048;28;20442;-72
2022/08/15 12:47:29;;;;;;;4.77;3.50;;;30.00;41.00;;;;;;5038775;28;20439;-72
2022/08/15 12:49:55;;;;;;;5.23;3.37;;;30.10;41.10;;;;;;5048522;28;20503;-74
2022/08/15 12:52:21;;;;;;;5.73;3.30;;;28.90;44.10;;;;;;5045815;28;20966;-72
2022/08/15 12:54:48;;;;;;;5.50;3.40;;;28.10;45.90;;;;;;5047774;28;20715;-71
2022/08/15 12:57:14;;;;;;;5.97;3.70;;;27.60;47.80;;;;;;5047422;28;20505;-70
2022/08/15 12:59:40;;;;;;;6.33;3.57;;;27.20;49.30;;;;;;5043148;28;20413;-71
2022/08/15 13:02:07;;;;;;;6.43;3.83;;;27.20;49.40;;;;;;5044377;28;20461;-71
2022/08/15 13:04:33;;;;;;;4.70;3.33;;;26.90;50.10;;;;;;5045734;28;20557;-70
2022/08/15 13:07:00;;;;;;;4.57;3.53;;;26.90;50.30;;;;;;5036099;28;20532;-71
2022/08/15 13:09:30;;;;;;;6.27;3.70;;;26.80;49.50;;;;;;5042571;28;20457;-70
2022/08/15 13:11:56;;;;;;;4.77;3.40;;;26.80;49.40;;;;;;5033587;28;20904;-70
2022/08/15 13:14:22;;;;;;;5.80;3.30;;;26.80;49.30;;;;;;5044315;28;20476;-71
2022/08/15 13:16:49;;;;;;;5.27;3.53;;;26.60;49.50;;;;;;5048839;28;20422;-72
2022/08/15 13:19:27;;;;;;;5.53;3.47;;;26.60;49.40;;;;;;5043802;28;20456;-73